createdAt,value
2023-04-20T00:00:04.151Z,7.75
2023-04-20T00:01:04.155Z,7.75
2023-04-20T00:02:04.358Z,7.69
2023-04-20T00:03:04.474Z,7.62
2023-04-20T00:04:04.458Z,7.69
2023-04-20T00:05:04.345Z,7.75
2023-04-20T00:06:04.304Z,7.75
2023-04-20T00:07:04.303Z,7.75
2023-04-20T00:08:04.317Z,7.75
2023-04-20T00:09:04.312Z,7.81
2023-04-20T00:10:04.561Z,7.81
2023-04-20T00:11:03.843Z,7.88
2023-04-20T00:12:03.828Z,7.81
2023-04-20T00:13:03.829Z,7.81
2023-04-20T00:14:03.866Z,7.81
2023-04-20T00:15:03.861Z,7.88
2023-04-20T00:16:03.922Z,7.81
2023-04-20T00:17:04.061Z,7.88
2023-04-20T00:18:03.969Z,7.94
2023-04-20T00:19:03.920Z,8.00
2023-04-20T00:20:04.008Z,8.06
2023-04-20T00:21:04.073Z,8.12
2023-04-20T00:22:04.068Z,8.12
2023-04-20T00:23:03.990Z,8.06
2023-04-20T00:24:04.160Z,8.06
2023-04-20T00:25:04.146Z,8.06
2023-04-20T00:26:04.309Z,8.12
2023-04-20T00:27:04.238Z,8.12
2023-04-20T00:28:04.332Z,8.06
2023-04-20T00:29:04.221Z,8.12
2023-04-20T00:30:04.301Z,8.06
2023-04-20T00:31:04.369Z,8.06
2023-04-20T00:32:04.387Z,8.06
2023-04-20T00:33:04.347Z,8.06
2023-04-20T00:34:04.380Z,8.00
2023-04-20T00:35:04.392Z,8.00
2023-04-20T00:36:03.596Z,7.94
2023-04-20T00:37:03.524Z,8.00
2023-04-20T00:38:03.665Z,7.88
2023-04-20T00:39:03.675Z,7.81
2023-04-20T00:40:03.675Z,7.75
2023-04-20T00:41:03.680Z,7.81
2023-04-20T00:42:03.688Z,7.81
2023-04-20T00:43:03.666Z,7.75
2023-04-20T00:44:04.302Z,7.75
2023-04-20T00:45:04.387Z,7.75
2023-04-20T00:46:04.503Z,7.69
2023-04-20T00:47:03.508Z,7.69
2023-04-20T00:48:03.927Z,7.81
2023-04-20T00:49:04.378Z,7.94
2023-04-20T00:50:04.384Z,7.88
2023-04-20T00:51:04.464Z,7.94
2023-04-20T00:52:04.384Z,7.94
2023-04-20T00:53:04.382Z,7.94
2023-04-20T00:54:04.409Z,7.94
2023-04-20T00:55:04.508Z,7.94
2023-04-20T00:56:04.397Z,7.94
2023-04-20T00:57:04.466Z,7.94
2023-04-20T00:58:03.502Z,7.94
2023-04-20T00:59:03.674Z,7.88
2023-04-20T01:00:03.610Z,8.00
2023-04-20T01:01:03.578Z,8.06
2023-04-20T01:02:03.638Z,8.06
2023-04-20T01:03:03.814Z,8.12
2023-04-20T01:04:03.707Z,8.19
2023-04-20T01:05:03.666Z,8.25
2023-04-20T01:06:03.899Z,8.19
2023-04-20T01:07:04.072Z,8.19
2023-04-20T01:08:04.057Z,8.19
2023-04-20T01:09:04.054Z,8.12
2023-04-20T01:10:04.168Z,8.12
2023-04-20T01:11:04.167Z,8.06
2023-04-20T01:12:04.247Z,7.94
2023-04-20T01:13:04.213Z,7.88
2023-04-20T01:14:04.317Z,7.94
2023-04-20T01:15:04.223Z,7.94
2023-04-20T01:16:04.333Z,7.94
2023-04-20T01:17:04.391Z,8.06
2023-04-20T01:18:04.364Z,8.19
2023-04-20T01:19:04.304Z,8.12
2023-04-20T01:20:04.382Z,8.06
2023-04-20T01:21:04.480Z,8.00
2023-04-20T01:22:04.485Z,8.00
2023-04-20T01:23:04.503Z,8.12
2023-04-20T01:24:04.470Z,8.25
2023-04-20T01:25:03.506Z,8.31
2023-04-20T01:26:03.593Z,8.38
2023-04-20T01:27:03.617Z,8.31
2023-04-20T01:28:03.691Z,8.31
2023-04-20T01:29:03.662Z,8.25
2023-04-20T01:30:03.754Z,8.19
2023-04-20T01:31:03.695Z,8.00
2023-04-20T01:32:03.676Z,7.88
2023-04-20T01:33:03.765Z,7.81
2023-04-20T01:34:03.741Z,7.88
2023-04-20T01:35:03.909Z,7.81
2023-04-20T01:36:03.999Z,7.69
2023-04-20T01:37:03.913Z,7.56
2023-04-20T01:38:03.849Z,7.56
2023-04-20T01:39:03.832Z,7.62
2023-04-20T01:40:03.992Z,7.69
2023-04-20T01:41:03.988Z,7.62
2023-04-20T01:42:03.994Z,7.50
2023-04-20T01:43:03.996Z,7.44
2023-04-20T01:44:03.992Z,7.38
2023-04-20T01:45:04.081Z,7.38
2023-04-20T01:46:04.180Z,7.50
2023-04-20T01:47:04.292Z,7.44
2023-04-20T01:48:04.269Z,7.44
2023-04-20T01:49:04.250Z,7.44
2023-04-20T01:50:04.425Z,7.44
2023-04-20T01:51:04.398Z,7.31
2023-04-20T01:52:04.312Z,7.38
2023-04-20T01:53:04.324Z,7.38
2023-04-20T01:54:04.476Z,7.44
2023-04-20T01:55:03.516Z,7.44
2023-04-20T01:56:03.589Z,7.38
2023-04-20T01:57:03.742Z,7.44
2023-04-20T01:58:03.747Z,7.44
2023-04-20T01:59:03.833Z,7.31
2023-04-20T02:00:03.915Z,7.38
2023-04-20T02:01:04.194Z,7.44
2023-04-20T02:02:04.234Z,7.38
2023-04-20T02:03:04.207Z,7.44
2023-04-20T02:04:04.177Z,7.44
2023-04-20T02:05:04.155Z,7.50
2023-04-20T02:06:04.076Z,7.50
2023-04-20T02:07:04.080Z,7.69
2023-04-20T02:08:04.275Z,7.69
2023-04-20T02:09:04.321Z,7.69
2023-04-20T02:10:04.233Z,7.69
2023-04-20T02:11:04.311Z,7.69
2023-04-20T02:12:04.350Z,7.81
2023-04-20T02:13:04.396Z,7.75
2023-04-20T02:14:04.402Z,7.88
2023-04-20T02:15:04.299Z,7.94
2023-04-20T02:16:04.480Z,7.81
2023-04-20T02:17:04.483Z,7.81
2023-04-20T02:18:03.667Z,7.62
2023-04-20T02:19:03.682Z,7.56
2023-04-20T02:20:03.667Z,7.56
2023-04-20T02:21:03.667Z,7.50
2023-04-20T02:22:03.760Z,7.44
2023-04-20T02:23:03.912Z,7.31
2023-04-20T02:24:03.983Z,7.31
2023-04-20T02:25:04.078Z,7.44
2023-04-20T02:26:03.998Z,7.25
2023-04-20T02:27:04.082Z,7.25
2023-04-20T02:28:04.073Z,7.25
2023-04-20T02:29:04.146Z,7.25
2023-04-20T02:30:04.128Z,7.19
2023-04-20T02:31:04.264Z,7.19
2023-04-20T02:32:04.152Z,7.19
2023-04-20T02:33:04.269Z,7.19
2023-04-20T02:34:04.146Z,7.12
2023-04-20T02:35:04.262Z,7.06
2023-04-20T02:36:04.162Z,7.06
2023-04-20T02:37:04.228Z,7.12
2023-04-20T02:38:04.163Z,7.00
2023-04-20T02:39:04.230Z,7.06
2023-04-20T02:40:04.308Z,7.00
2023-04-20T02:41:04.217Z,7.00
2023-04-20T02:42:04.302Z,7.06
2023-04-20T02:43:04.234Z,7.00
2023-04-20T02:44:04.392Z,7.00
2023-04-20T02:45:04.294Z,7.00
2023-04-20T02:46:04.501Z,7.06
2023-04-20T02:47:04.542Z,7.00
2023-04-20T02:48:03.695Z,6.94
2023-04-20T02:49:03.578Z,6.88
2023-04-20T02:50:03.672Z,7.00
2023-04-20T02:51:03.688Z,6.88
2023-04-20T02:52:03.674Z,6.81
2023-04-20T02:53:03.683Z,6.75
2023-04-20T02:54:03.753Z,6.88
2023-04-20T02:55:03.760Z,6.88
2023-04-20T02:56:03.745Z,6.75
2023-04-20T02:57:03.783Z,6.69
2023-04-20T02:58:03.745Z,6.75
2023-04-20T02:59:03.836Z,6.88
2023-04-20T03:00:03.842Z,6.81
2023-04-20T03:01:03.768Z,6.75
2023-04-20T03:02:03.899Z,6.69
2023-04-20T03:03:04.414Z,6.62
2023-04-20T03:04:04.251Z,6.69
2023-04-20T03:05:03.984Z,6.69
2023-04-20T03:06:04.078Z,6.69
2023-04-20T03:07:04.142Z,6.69
2023-04-20T03:08:04.152Z,6.81
2023-04-20T03:09:04.161Z,6.94
2023-04-20T03:10:04.177Z,7.00
2023-04-20T03:11:04.215Z,6.88
2023-04-20T03:12:04.153Z,6.88
2023-04-20T03:13:04.250Z,6.81
2023-04-20T03:14:04.237Z,6.81
2023-04-20T03:15:04.145Z,6.69
2023-04-20T03:16:04.287Z,6.75
2023-04-20T03:17:04.404Z,6.88
2023-04-20T03:18:03.751Z,6.81
2023-04-20T03:19:03.763Z,6.69
2023-04-20T03:20:04.237Z,6.69
2023-04-20T03:21:04.237Z,6.75
2023-04-20T03:22:04.324Z,6.69
2023-04-20T03:23:04.402Z,6.69
2023-04-20T03:24:04.310Z,6.56
2023-04-20T03:25:04.296Z,6.56
2023-04-20T03:26:04.298Z,6.56
2023-04-20T03:27:04.478Z,6.56
2023-04-20T03:28:04.392Z,6.69
2023-04-20T03:29:03.743Z,6.75
2023-04-20T03:30:03.750Z,6.62
2023-04-20T03:31:03.678Z,6.62
2023-04-20T03:32:03.809Z,6.56
2023-04-20T03:33:03.781Z,6.44
2023-04-20T03:34:03.839Z,6.56
2023-04-20T03:35:03.762Z,6.50
2023-04-20T03:36:03.742Z,6.50
2023-04-20T03:37:03.827Z,6.50
2023-04-20T03:38:04.003Z,6.38
2023-04-20T03:39:03.902Z,6.38
2023-04-20T03:40:03.983Z,6.44
2023-04-20T03:41:04.160Z,6.44
2023-04-20T03:42:04.077Z,6.50
2023-04-20T03:43:04.080Z,6.44
2023-04-20T03:44:03.898Z,6.44
2023-04-20T03:45:03.901Z,6.31
2023-04-20T03:46:04.009Z,6.19
2023-04-20T03:47:03.897Z,6.31
2023-04-20T03:48:04.047Z,6.38
2023-04-20T03:49:04.060Z,6.44
2023-04-20T03:50:04.223Z,6.50
2023-04-20T03:51:04.309Z,6.44
2023-04-20T03:52:04.302Z,6.56
2023-04-20T03:53:04.380Z,6.44
2023-04-20T03:54:04.375Z,6.56
2023-04-20T03:55:04.464Z,6.56
2023-04-20T03:56:04.371Z,6.50
2023-04-20T03:57:04.460Z,6.50
2023-04-20T03:58:04.470Z,6.56
2023-04-20T03:59:03.596Z,6.62
2023-04-20T04:00:04.458Z,6.50
2023-04-20T04:01:04.475Z,6.50
2023-04-20T04:02:04.489Z,6.62
2023-04-20T04:03:04.524Z,6.75
2023-04-20T04:04:04.565Z,6.62
2023-04-20T04:05:04.479Z,6.75
2023-04-20T04:06:04.457Z,6.69
2023-04-20T04:07:04.465Z,6.56
2023-04-20T04:08:04.545Z,6.44
2023-04-20T04:09:03.533Z,6.44
2023-04-20T04:10:03.586Z,6.44
2023-04-20T04:11:03.597Z,6.38
2023-04-20T04:12:03.428Z,6.50
2023-04-20T04:13:03.591Z,6.50
2023-04-20T04:14:03.578Z,6.50
2023-04-20T04:15:03.584Z,6.62
2023-04-20T04:16:03.684Z,6.62
2023-04-20T04:17:03.769Z,6.62
2023-04-20T04:18:03.798Z,6.62
2023-04-20T04:19:03.661Z,6.62
2023-04-20T04:20:03.757Z,6.62
2023-04-20T04:21:03.691Z,6.62
2023-04-20T04:22:03.662Z,6.56
2023-04-20T04:23:03.755Z,6.56
2023-04-20T04:24:03.748Z,6.56
2023-04-20T04:25:03.992Z,6.50
2023-04-20T04:26:04.086Z,6.75
2023-04-20T04:27:03.988Z,7.00
2023-04-20T04:28:03.981Z,6.94
2023-04-20T04:29:03.904Z,6.94
2023-04-20T04:30:03.838Z,7.00
2023-04-20T04:31:04.001Z,6.94
2023-04-20T04:32:03.992Z,6.88
2023-04-20T04:33:03.786Z,6.88
2023-04-20T04:34:03.839Z,6.94
2023-04-20T04:35:03.825Z,6.88
2023-04-20T04:36:03.915Z,6.94
2023-04-20T04:37:04.012Z,6.88
2023-04-20T04:38:03.991Z,6.94
2023-04-20T04:39:03.915Z,6.94
2023-04-20T04:40:04.462Z,7.25
2023-04-20T04:41:04.070Z,7.69
2023-04-20T04:42:04.883Z,7.69
2023-04-20T04:43:03.911Z,7.62
2023-04-20T04:44:04.074Z,7.69
2023-04-20T04:45:04.072Z,7.69
2023-04-20T04:46:04.116Z,7.62
2023-04-20T04:47:03.988Z,7.44
2023-04-20T04:48:05.053Z,7.44
2023-04-20T04:49:04.228Z,7.38
2023-04-20T04:50:04.313Z,7.19
2023-04-20T04:51:03.672Z,7.12
2023-04-20T04:52:03.668Z,7.12
2023-04-20T04:53:03.842Z,7.25
2023-04-20T04:54:03.747Z,7.19
2023-04-20T04:55:03.827Z,7.19
2023-04-20T04:56:03.836Z,7.12
2023-04-20T04:57:03.905Z,7.25
2023-04-20T04:58:03.842Z,7.25
2023-04-20T04:59:03.829Z,7.25
2023-04-20T05:00:03.911Z,7.50
2023-04-20T05:01:03.927Z,7.38
2023-04-20T05:02:03.800Z,7.19
2023-04-20T05:03:03.830Z,7.19
2023-04-20T05:04:03.738Z,7.19
2023-04-20T05:05:03.660Z,7.12
2023-04-20T05:06:03.845Z,7.19
2023-04-20T05:07:03.762Z,7.00
2023-04-20T05:08:03.675Z,7.12
2023-04-20T05:09:03.595Z,7.25
2023-04-20T05:10:03.585Z,7.12
2023-04-20T05:11:03.509Z,7.00
2023-04-20T05:12:04.310Z,7.12
2023-04-20T05:13:04.311Z,7.12
2023-04-20T05:14:04.318Z,7.12
2023-04-20T05:15:04.308Z,7.19
2023-04-20T05:16:04.305Z,7.19
2023-04-20T05:17:04.313Z,7.19
2023-04-20T05:18:04.293Z,7.25
2023-04-20T05:19:04.393Z,7.25
2023-04-20T05:20:04.311Z,7.19
2023-04-20T05:21:04.392Z,7.25
2023-04-20T05:22:04.384Z,7.25
2023-04-20T05:23:04.425Z,7.19
2023-04-20T05:24:04.250Z,7.19
2023-04-20T05:25:04.445Z,7.19
2023-04-20T05:26:04.482Z,7.19
2023-04-20T05:27:04.520Z,7.31
2023-04-20T05:28:04.401Z,7.25
2023-04-20T05:29:03.834Z,7.31
2023-04-20T05:30:16.936Z,7.31
2023-04-20T05:31:04.064Z,7.06
2023-04-20T05:32:04.155Z,7.12
2023-04-20T05:33:04.259Z,7.19
2023-04-20T05:34:04.337Z,7.12
2023-04-20T05:35:04.341Z,7.06
2023-04-20T05:36:04.417Z,7.19
2023-04-20T05:37:04.247Z,7.19
2023-04-20T05:38:04.153Z,7.00
2023-04-20T05:39:04.169Z,7.00
2023-04-20T05:40:04.151Z,7.00
2023-04-20T05:41:04.148Z,7.19
2023-04-20T05:42:04.155Z,7.06
2023-04-20T05:43:04.076Z,7.19
2023-04-20T05:44:04.232Z,7.06
2023-04-20T05:45:04.233Z,7.12
2023-04-20T05:46:04.324Z,7.00
2023-04-20T05:47:04.385Z,6.94
2023-04-20T05:48:04.319Z,6.94
2023-04-20T05:49:04.397Z,7.00
2023-04-20T05:50:04.395Z,7.25
2023-04-20T05:51:04.397Z,7.50
2023-04-20T05:52:04.397Z,7.44
2023-04-20T05:53:04.402Z,7.19
2023-04-20T05:54:03.844Z,7.00
2023-04-20T05:55:03.847Z,6.88
2023-04-20T05:56:03.690Z,6.75
2023-04-20T05:57:03.679Z,6.88
2023-04-20T05:58:03.673Z,6.81
2023-04-20T05:59:03.665Z,6.94
2023-04-20T06:00:04.191Z,6.94
2023-04-20T06:01:04.226Z,7.06
2023-04-20T06:02:04.332Z,6.94
2023-04-20T06:03:04.398Z,6.88
2023-04-20T06:04:04.547Z,6.81
2023-04-20T06:05:04.475Z,6.94
2023-04-20T06:06:04.410Z,7.06
2023-04-20T06:07:04.555Z,7.50
2023-04-20T06:08:04.478Z,9.00
2023-04-20T06:09:04.479Z,10.12
2023-04-20T06:10:04.396Z,10.94
2023-04-20T06:11:03.524Z,10.44
2023-04-20T06:12:04.477Z,10.19
2023-04-20T06:13:03.442Z,10.62
2023-04-20T06:14:03.592Z,11.12
2023-04-20T06:15:03.783Z,11.06
2023-04-20T06:16:03.714Z,10.56
2023-04-20T06:17:03.742Z,9.88
2023-04-20T06:18:03.873Z,9.75
2023-04-20T06:19:03.760Z,10.00
2023-04-20T06:20:03.874Z,9.81
2023-04-20T06:21:03.844Z,10.12
2023-04-20T06:22:03.760Z,10.12
2023-04-20T06:23:03.837Z,9.81
2023-04-20T06:24:03.833Z,9.62
2023-04-20T06:25:03.905Z,9.50
2023-04-20T06:26:03.916Z,9.94
2023-04-20T06:27:04.013Z,10.06
2023-04-20T06:28:04.026Z,10.56
2023-04-20T06:29:04.009Z,11.00
2023-04-20T06:30:04.239Z,11.19
2023-04-20T06:31:04.194Z,11.25
2023-04-20T06:32:04.233Z,11.25
2023-04-20T06:33:04.445Z,11.44
2023-04-20T06:34:04.382Z,11.38
2023-04-20T06:35:04.396Z,11.56
2023-04-20T06:36:03.627Z,11.62
2023-04-20T06:37:04.478Z,11.69
2023-04-20T06:38:04.391Z,11.81
2023-04-20T06:39:03.517Z,11.75
2023-04-20T06:40:03.500Z,11.81
2023-04-20T06:41:03.599Z,12.12
2023-04-20T06:42:03.604Z,12.25
2023-04-20T06:43:03.531Z,12.12
2023-04-20T06:44:04.467Z,11.75
2023-04-20T06:45:04.394Z,11.69
2023-04-20T06:46:03.533Z,11.69
2023-04-20T06:47:03.619Z,11.81
2023-04-20T06:48:03.654Z,11.75
2023-04-20T06:49:03.691Z,11.81
2023-04-20T06:50:03.710Z,12.06
2023-04-20T06:51:03.600Z,12.12
2023-04-20T06:52:03.702Z,12.31
2023-04-20T06:53:03.612Z,12.62
2023-04-20T06:54:03.597Z,12.81
2023-04-20T06:55:03.684Z,13.00
2023-04-20T06:56:03.629Z,13.12
2023-04-20T06:57:03.670Z,13.31
2023-04-20T06:58:03.694Z,13.31
2023-04-20T06:59:03.683Z,13.19
2023-04-20T07:00:03.591Z,13.00
2023-04-20T07:01:03.597Z,12.81
2023-04-20T07:02:03.842Z,12.62
2023-04-20T07:03:03.765Z,12.50
2023-04-20T07:04:03.656Z,12.38
2023-04-20T07:05:03.613Z,12.31
2023-04-20T07:06:03.590Z,12.12
2023-04-20T07:07:03.588Z,12.19
2023-04-20T07:08:03.673Z,12.25
2023-04-20T07:09:03.759Z,12.12
2023-04-20T07:10:03.689Z,12.06
2023-04-20T07:11:03.672Z,12.06
2023-04-20T07:12:03.669Z,12.06
2023-04-20T07:13:03.749Z,12.06
2023-04-20T07:14:03.842Z,11.88
2023-04-20T07:15:03.833Z,12.06
2023-04-20T07:16:03.790Z,12.00
2023-04-20T07:17:03.762Z,11.94
2023-04-20T07:18:03.821Z,11.94
2023-04-20T07:19:03.918Z,11.88
2023-04-20T07:20:03.830Z,12.00
2023-04-20T07:21:03.857Z,11.88
2023-04-20T07:22:03.830Z,11.88
2023-04-20T07:23:03.919Z,11.81
2023-04-20T07:24:03.934Z,11.88
2023-04-20T07:25:03.838Z,11.81
2023-04-20T07:26:04.009Z,12.00
2023-04-20T07:27:03.830Z,11.88
2023-04-20T07:28:03.821Z,11.81
2023-04-20T07:29:03.747Z,11.81
2023-04-20T07:30:03.824Z,11.81
2023-04-20T07:31:04.009Z,11.88
2023-04-20T07:32:03.854Z,11.81
2023-04-20T07:33:03.885Z,11.81
2023-04-20T07:34:03.757Z,11.56
2023-04-20T07:35:03.831Z,11.44
2023-04-20T07:36:03.750Z,11.31
2023-04-20T07:37:03.848Z,11.25
2023-04-20T07:38:03.771Z,11.38
2023-04-20T07:39:03.750Z,11.44
2023-04-20T07:40:03.824Z,11.31
2023-04-20T07:41:03.749Z,11.31
2023-04-20T07:42:03.755Z,11.50
2023-04-20T07:43:03.752Z,11.56
2023-04-20T07:44:03.930Z,11.44
2023-04-20T07:45:03.994Z,11.38
2023-04-20T07:46:04.200Z,11.38
2023-04-20T07:47:04.842Z,11.38
2023-04-20T07:48:04.009Z,11.38
2023-04-20T07:49:05.215Z,11.31
2023-04-20T07:50:04.168Z,11.25
2023-04-20T07:51:04.174Z,11.25
2023-04-20T07:52:15.500Z,11.31
2023-04-20T07:53:04.172Z,11.38
2023-04-20T07:54:04.168Z,11.62
2023-04-20T07:55:04.086Z,11.56
2023-04-20T07:56:03.994Z,11.50
2023-04-20T07:57:04.004Z,11.44
2023-04-20T07:58:03.992Z,11.44
2023-04-20T07:59:04.090Z,11.44
2023-04-20T08:00:04.169Z,11.38
2023-04-20T08:01:04.246Z,11.44
2023-04-20T08:02:04.316Z,11.50
2023-04-20T08:03:04.286Z,11.56
2023-04-20T08:04:04.445Z,11.62
2023-04-20T08:05:04.756Z,11.50
2023-04-20T08:06:04.416Z,11.56
2023-04-20T08:07:04.347Z,11.50
2023-04-20T08:08:04.417Z,11.44
2023-04-20T08:09:04.313Z,11.38
2023-04-20T08:10:04.414Z,11.31
2023-04-20T08:11:05.290Z,11.44
2023-04-20T08:12:04.407Z,11.50
2023-04-20T08:13:04.405Z,11.50
2023-04-20T08:14:04.408Z,11.62
2023-04-20T08:15:04.405Z,11.75
2023-04-20T08:16:04.401Z,11.81
2023-04-20T08:17:04.346Z,11.81
2023-04-20T08:18:04.305Z,11.88
2023-04-20T08:19:04.333Z,12.06
2023-04-20T08:20:04.440Z,12.00
2023-04-20T08:21:04.322Z,11.88
2023-04-20T08:22:04.409Z,12.06
2023-04-20T08:23:04.315Z,11.94
2023-04-20T08:24:04.324Z,11.94
2023-04-20T08:25:04.399Z,11.94
2023-04-20T08:26:04.329Z,11.94
2023-04-20T08:27:04.328Z,11.94
2023-04-20T08:28:06.180Z,11.88
2023-04-20T08:29:04.422Z,11.69
2023-04-20T08:30:03.541Z,11.62
2023-04-20T08:31:03.594Z,11.50
2023-04-20T08:32:03.687Z,11.38
2023-04-20T08:33:03.811Z,11.25
2023-04-20T08:34:03.529Z,11.25
2023-04-20T08:35:03.681Z,11.19
2023-04-20T08:36:03.694Z,11.12
2023-04-20T08:37:03.523Z,11.06
2023-04-20T08:38:03.529Z,11.06
2023-04-20T08:39:03.670Z,11.44
2023-04-20T08:40:03.685Z,11.56
2023-04-20T08:41:03.698Z,11.50
2023-04-20T08:42:03.772Z,11.56
2023-04-20T08:43:03.834Z,11.50
2023-04-20T08:44:03.696Z,11.50
2023-04-20T08:45:03.763Z,11.56
2023-04-20T08:46:03.835Z,11.56
2023-04-20T08:47:03.823Z,11.50
2023-04-20T08:48:03.743Z,11.50
2023-04-20T08:49:03.678Z,11.56
2023-04-20T08:50:03.636Z,11.62
2023-04-20T08:51:03.594Z,11.69
2023-04-20T08:52:03.680Z,11.69
2023-04-20T08:53:03.607Z,11.56
2023-04-20T08:54:03.755Z,11.50
2023-04-20T08:55:03.686Z,11.50
2023-04-20T08:56:03.766Z,11.56
2023-04-20T08:57:03.828Z,11.81
2023-04-20T08:58:03.853Z,11.69
2023-04-20T08:59:03.783Z,11.50
2023-04-20T09:00:03.686Z,11.56
2023-04-20T09:01:03.837Z,11.50
2023-04-20T09:02:03.915Z,11.50
2023-04-20T09:03:04.093Z,11.31
2023-04-20T09:04:04.019Z,11.25
2023-04-20T09:05:03.929Z,11.25
2023-04-20T09:06:03.952Z,11.06
2023-04-20T09:07:03.839Z,11.19
2023-04-20T09:08:03.762Z,11.06
2023-04-20T09:09:03.754Z,11.00
2023-04-20T09:10:03.762Z,10.88
2023-04-20T09:11:03.846Z,10.94
2023-04-20T09:12:03.762Z,10.94
2023-04-20T09:13:03.761Z,11.00
2023-04-20T09:14:03.588Z,10.94
2023-04-20T09:15:03.672Z,10.88
2023-04-20T09:16:03.715Z,10.81
2023-04-20T09:17:03.664Z,10.88
2023-04-20T09:18:03.958Z,11.00
2023-04-20T09:19:03.993Z,11.19
2023-04-20T09:20:04.084Z,11.25
2023-04-20T09:21:04.146Z,11.31
2023-04-20T09:22:04.247Z,11.25
2023-04-20T09:23:04.307Z,11.25
2023-04-20T09:24:04.386Z,11.12
2023-04-20T09:25:04.417Z,11.00
2023-04-20T09:26:04.423Z,11.00
2023-04-20T09:27:04.312Z,11.00
2023-04-20T09:28:03.512Z,10.88
2023-04-20T09:29:03.505Z,10.88
2023-04-20T09:30:06.152Z,10.94
2023-04-20T09:31:04.237Z,11.00
2023-04-20T09:32:04.367Z,10.88
2023-04-20T09:33:04.419Z,10.88
2023-04-20T09:34:04.322Z,11.19
2023-04-20T09:35:05.825Z,11.00
2023-04-20T09:36:04.000Z,11.00
2023-04-20T09:37:05.611Z,11.00
2023-04-20T09:38:04.000Z,10.94
2023-04-20T09:39:04.087Z,10.88
2023-04-20T09:40:04.085Z,10.88
2023-04-20T09:41:04.152Z,10.88
2023-04-20T09:42:05.516Z,10.94
2023-04-20T09:43:03.761Z,10.94
2023-04-20T09:44:03.738Z,10.81
2023-04-20T09:45:03.845Z,11.06
2023-04-20T09:46:04.163Z,11.25
2023-04-20T09:47:04.070Z,11.44
2023-04-20T09:48:04.112Z,11.31
2023-04-20T09:49:04.158Z,11.25
2023-04-20T09:50:10.589Z,11.12
2023-04-20T09:51:04.304Z,11.06
2023-04-20T09:52:04.156Z,11.00
2023-04-20T09:53:04.226Z,11.06
2023-04-20T09:54:03.679Z,11.00
2023-04-20T09:55:03.758Z,10.88
2023-04-20T09:56:03.678Z,10.81
2023-04-20T09:57:03.672Z,10.88
2023-04-20T09:58:03.843Z,10.75
2023-04-20T09:59:03.759Z,10.69
2023-04-20T10:00:03.903Z,10.62
2023-04-20T10:01:05.830Z,10.62
2023-04-20T10:02:04.120Z,10.56
2023-04-20T10:03:04.041Z,10.56
2023-04-20T10:04:04.227Z,10.69
2023-04-20T10:05:03.993Z,10.81
2023-04-20T10:06:04.001Z,10.94
2023-04-20T10:07:03.945Z,10.94
2023-04-20T10:08:03.896Z,10.94
2023-04-20T10:09:03.916Z,10.94
2023-04-20T10:10:04.056Z,11.00
2023-04-20T10:11:04.070Z,11.00
2023-04-20T10:12:04.086Z,11.31
2023-04-20T10:13:04.089Z,11.25
2023-04-20T10:14:03.900Z,11.38
2023-04-20T10:15:03.991Z,11.50
2023-04-20T10:16:03.914Z,11.50
2023-04-20T10:17:04.083Z,11.50
2023-04-20T10:18:03.978Z,11.50
2023-04-20T10:19:04.006Z,11.56
2023-04-20T10:20:04.164Z,11.62
2023-04-20T10:21:04.091Z,11.62
2023-04-20T10:22:04.062Z,11.56
2023-04-20T10:23:04.327Z,11.69
2023-04-20T10:24:04.221Z,11.62
2023-04-20T10:25:04.389Z,11.69
2023-04-20T10:26:04.347Z,11.69
2023-04-20T10:27:04.324Z,11.62
2023-04-20T10:28:04.307Z,11.50
2023-04-20T10:29:04.301Z,11.69
2023-04-20T10:30:04.302Z,11.75
2023-04-20T10:31:04.279Z,11.69
2023-04-20T10:32:04.310Z,11.75
2023-04-20T10:33:04.249Z,11.81
2023-04-20T10:34:04.246Z,11.94
2023-04-20T10:35:04.147Z,12.00
2023-04-20T10:36:04.239Z,12.00
2023-04-20T10:37:04.325Z,11.88
2023-04-20T10:38:04.309Z,12.00
2023-04-20T10:39:04.214Z,12.25
2023-04-20T10:40:06.154Z,12.31
2023-04-20T10:41:04.395Z,12.19
2023-04-20T10:42:04.392Z,12.19
2023-04-20T10:43:03.430Z,12.06
2023-04-20T10:44:03.601Z,12.06
2023-04-20T10:45:03.611Z,12.06
2023-04-20T10:46:03.565Z,11.94
2023-04-20T10:47:03.520Z,11.81
2023-04-20T10:48:03.750Z,11.81
2023-04-20T10:49:03.540Z,11.75
2023-04-20T10:50:03.696Z,11.94
2023-04-20T10:51:03.661Z,11.81
2023-04-20T10:52:03.512Z,11.75
2023-04-20T10:53:03.626Z,11.62
2023-04-20T10:54:03.625Z,11.75
2023-04-20T10:55:04.391Z,12.00
2023-04-20T10:56:03.601Z,12.12
2023-04-20T10:57:03.518Z,11.94
2023-04-20T10:58:04.490Z,11.81
2023-04-20T10:59:04.480Z,11.69
2023-04-20T11:00:04.378Z,11.56
2023-04-20T11:01:04.276Z,11.44
2023-04-20T11:02:04.296Z,11.75
2023-04-20T11:03:04.276Z,11.62
2023-04-20T11:04:04.231Z,11.50
2023-04-20T11:05:04.271Z,11.44
2023-04-20T11:06:04.405Z,11.44
2023-04-20T11:07:04.326Z,11.44
2023-04-20T11:08:04.478Z,11.38
2023-04-20T11:09:04.312Z,11.50
2023-04-20T11:10:04.406Z,11.69
2023-04-20T11:11:04.310Z,11.75
2023-04-20T11:12:04.526Z,11.81
2023-04-20T11:13:04.390Z,11.56
2023-04-20T11:14:03.425Z,11.75
2023-04-20T11:15:03.540Z,11.69
2023-04-20T11:16:03.572Z,11.50
2023-04-20T11:17:03.565Z,11.50
2023-04-20T11:18:03.573Z,11.50
2023-04-20T11:19:03.694Z,11.69
2023-04-20T11:20:03.703Z,11.62
2023-04-20T11:21:03.715Z,11.50
2023-04-20T11:22:03.763Z,11.44
2023-04-20T11:23:03.815Z,11.62
2023-04-20T11:24:03.822Z,11.44
2023-04-20T11:25:03.836Z,11.44
2023-04-20T11:26:03.912Z,11.31
2023-04-20T11:27:03.907Z,11.50
2023-04-20T11:28:03.991Z,11.44
2023-04-20T11:29:03.979Z,11.50
2023-04-20T11:30:03.821Z,11.31
2023-04-20T11:31:04.036Z,11.25
2023-04-20T11:32:04.104Z,11.19
2023-04-20T11:33:04.092Z,11.12
2023-04-20T11:34:05.962Z,11.06
2023-04-20T11:35:06.770Z,11.06
2023-04-20T11:36:04.156Z,11.06
2023-04-20T11:37:04.157Z,11.12
2023-04-20T11:38:04.063Z,11.12
2023-04-20T11:39:04.166Z,11.06
2023-04-20T11:40:04.243Z,11.25
2023-04-20T11:41:04.065Z,11.38
2023-04-20T11:42:04.004Z,11.56
2023-04-20T11:43:04.064Z,11.56
2023-04-20T11:44:04.148Z,11.62
2023-04-20T11:45:04.146Z,11.38
2023-04-20T11:46:04.155Z,11.25
2023-04-20T11:47:04.233Z,11.19
2023-04-20T11:48:04.169Z,11.12
2023-04-20T11:49:04.232Z,11.06
2023-04-20T11:50:04.396Z,11.19
2023-04-20T11:51:04.218Z,11.12
2023-04-20T11:52:04.401Z,11.06
2023-04-20T11:53:04.560Z,11.00
2023-04-20T11:54:04.392Z,11.06
2023-04-20T11:55:04.567Z,11.00
2023-04-20T11:56:03.687Z,11.00
2023-04-20T11:57:03.695Z,10.94
2023-04-20T11:58:03.684Z,11.00
2023-04-20T11:59:03.658Z,10.88
2023-04-20T12:00:03.827Z,10.88
2023-04-20T12:01:03.741Z,10.75
2023-04-20T12:02:04.341Z,10.69
2023-04-20T12:03:04.057Z,10.69
2023-04-20T12:04:04.059Z,10.69
2023-04-20T12:05:03.878Z,10.62
2023-04-20T12:06:03.891Z,10.69
2023-04-20T12:07:03.886Z,10.69
2023-04-20T12:08:03.996Z,10.62
2023-04-20T12:09:03.622Z,10.88
2023-04-20T12:10:03.507Z,10.75
2023-04-20T12:11:03.509Z,10.62
2023-04-20T12:12:03.511Z,10.56
2023-04-20T12:13:03.751Z,10.56
2023-04-20T12:14:03.878Z,10.50
2023-04-20T12:15:03.839Z,10.56
2023-04-20T12:16:03.885Z,10.56
2023-04-20T12:17:04.017Z,10.69
2023-04-20T12:18:04.131Z,10.88
2023-04-20T12:19:03.992Z,10.69
2023-04-20T12:20:04.073Z,10.94
2023-04-20T12:21:04.230Z,10.94
2023-04-20T12:22:04.227Z,11.06
2023-04-20T12:23:04.321Z,10.94
2023-04-20T12:24:03.835Z,10.88
2023-04-20T12:25:03.857Z,10.81
2023-04-20T12:26:03.831Z,10.75
2023-04-20T12:27:04.000Z,10.69
2023-04-20T12:28:03.819Z,10.56
2023-04-20T12:29:03.822Z,10.56
2023-04-20T12:30:03.993Z,10.56
2023-04-20T12:31:04.014Z,10.88
2023-04-20T12:32:04.117Z,11.00
2023-04-20T12:33:04.112Z,11.06
2023-04-20T12:34:03.988Z,11.12
2023-04-20T12:35:03.983Z,11.06
2023-04-20T12:36:04.072Z,11.12
2023-04-20T12:37:03.988Z,11.00
2023-04-20T12:38:03.994Z,11.00
2023-04-20T12:39:04.095Z,10.94
2023-04-20T12:40:04.072Z,10.81
2023-04-20T12:41:03.981Z,10.69
2023-04-20T12:42:03.586Z,10.75
2023-04-20T12:43:03.748Z,10.62
2023-04-20T12:44:06.134Z,10.62
2023-04-20T12:45:03.822Z,10.56
2023-04-20T12:46:03.902Z,10.69
2023-04-20T12:47:04.041Z,10.75
2023-04-20T12:48:03.929Z,10.75
2023-04-20T12:49:03.909Z,10.62
2023-04-20T12:50:03.915Z,10.62
2023-04-20T12:51:03.980Z,10.56
2023-04-20T12:52:04.929Z,10.50
2023-04-20T12:53:04.140Z,10.44
2023-04-20T12:54:04.359Z,10.62
2023-04-20T12:55:04.225Z,10.88
2023-04-20T12:56:04.153Z,10.81
2023-04-20T12:57:04.226Z,10.81
2023-04-20T12:58:04.267Z,11.06
2023-04-20T12:59:04.296Z,10.94
2023-04-20T13:00:04.314Z,10.81
2023-04-20T13:01:04.351Z,10.62
2023-04-20T13:02:04.317Z,10.62
2023-04-20T13:03:04.396Z,10.75
2023-04-20T13:04:04.569Z,10.69